createdAt,value
2019-05-11T00:03:20.528Z,12.93
2019-05-11T00:08:25.767Z,13.23
2019-05-11T00:13:31.352Z,8.97
2019-05-11T00:18:36.739Z,9.83
2019-05-11T00:23:41.955Z,9.13
2019-05-11T00:28:47.099Z,9.53
2019-05-11T00:33:52.494Z,9.10
2019-05-11T00:38:58.222Z,9.10
2019-05-11T00:44:03.627Z,8.90
2019-05-11T00:49:08.795Z,9.00
2019-05-11T00:54:14.131Z,7.93
2019-05-11T00:59:22.267Z,10.73
2019-05-11T01:04:27.625Z,9.80
2019-05-11T01:09:33.275Z,10.27
2019-05-11T01:14:39.767Z,8.03
2019-05-11T01:19:44.999Z,12.23
2019-05-11T01:24:50.247Z,9.03
2019-05-11T01:29:55.550Z,8.07
2019-05-11T01:35:00.897Z,8.17
2019-05-11T01:40:06.543Z,8.60
2019-05-11T01:45:11.867Z,9.70
2019-05-11T01:50:17.374Z,9.50
2019-05-11T01:55:23.786Z,8.93
2019-05-11T02:00:30.171Z,8.60
2019-05-11T02:05:35.458Z,8.90
2019-05-11T02:10:40.674Z,10.10
2019-05-11T02:15:46.200Z,9.17
2019-05-11T02:20:51.438Z,10.50
2019-05-11T02:25:56.689Z,9.10
2019-05-11T02:31:01.946Z,10.57
2019-05-11T02:36:08.412Z,9.80
2019-05-11T02:41:13.693Z,8.80
2019-05-11T02:46:19.872Z,15.50
2019-05-11T02:51:25.233Z,9.77
2019-05-11T02:56:30.446Z,10.20
2019-05-11T03:01:35.693Z,14.10
2019-05-11T03:06:41.123Z,11.60
2019-05-11T03:11:55.408Z,11.83
2019-05-11T03:17:11.960Z,9.80
2019-05-11T03:22:17.297Z,12.17
2019-05-11T03:27:22.516Z,11.87
2019-05-11T03:32:28.231Z,12.23
2019-05-11T03:37:33.591Z,12.67
2019-05-11T03:42:38.777Z,10.47
2019-05-11T03:47:44.025Z,15.33
2019-05-11T03:52:49.267Z,15.13
2019-05-11T03:57:54.531Z,10.57
2019-05-11T04:03:00.140Z,12.67
2019-05-11T04:08:05.497Z,13.10
2019-05-11T04:13:10.699Z,12.03
2019-05-11T04:18:16.599Z,10.67
2019-05-11T04:23:21.866Z,14.37
2019-05-11T04:28:28.415Z,10.87
2019-05-11T04:33:33.678Z,10.67
2019-05-11T04:38:38.923Z,13.40
2019-05-11T04:43:46.302Z,17.30
2019-05-11T04:48:51.742Z,12.07
2019-05-11T04:53:57.530Z,11.57
2019-05-11T04:59:03.048Z,9.93
2019-05-11T05:04:13.844Z,9.30
2019-05-11T05:09:15.605Z,9.50
2019-05-11T05:14:21.023Z,11.93
2019-05-11T05:19:26.893Z,11.27
2019-05-11T05:24:32.092Z,10.50
2019-05-11T05:29:37.350Z,10.20
2019-05-11T05:34:42.675Z,12.30
2019-05-11T05:39:49.709Z,11.77
2019-05-11T05:44:55.133Z,11.37
2019-05-11T05:50:00.410Z,15.73
2019-05-11T05:55:05.606Z,13.77
2019-05-11T06:00:13.990Z,13.17
2019-05-11T06:05:19.238Z,14.83
2019-05-11T06:10:24.901Z,13.23
2019-05-11T06:15:30.055Z,14.67
2019-05-11T06:20:35.765Z,11.57
2019-05-11T06:25:41.090Z,11.63
2019-05-11T06:30:46.454Z,11.67
2019-05-11T06:35:52.286Z,11.37
2019-05-11T06:40:57.849Z,14.73
2019-05-11T06:46:03.252Z,12.57
2019-05-11T06:51:08.671Z,11.33
2019-05-11T06:56:14.715Z,9.40
2019-05-11T07:01:20.077Z,11.23
2019-05-11T07:06:30.112Z,7.40
2019-05-11T07:11:34.151Z,8.20
2019-05-11T07:16:40.807Z,5.03
2019-05-11T07:21:48.467Z,10.17
2019-05-11T07:26:56.783Z,6.20
2019-05-11T07:32:09.898Z,5.07
2019-05-11T07:37:24.513Z,6.30
2019-05-11T07:42:30.523Z,5.00
2019-05-11T07:47:37.911Z,6.00
2019-05-11T07:52:42.848Z,5.13
2019-05-11T07:57:50.442Z,6.70
2019-05-11T08:02:58.691Z,5.37
2019-05-11T08:08:04.487Z,9.00
2019-05-11T08:13:11.322Z,5.37
2019-05-11T08:18:18.757Z,6.43
2019-05-11T08:23:25.222Z,6.83
2019-05-11T08:28:30.654Z,5.30
2019-05-11T08:33:35.943Z,6.40
2019-05-11T08:38:42.272Z,7.20
2019-05-11T08:43:49.169Z,8.33
2019-05-11T08:48:55.215Z,6.00
2019-05-11T08:54:01.753Z,7.43
2019-05-11T08:59:08.303Z,8.93
2019-05-11T09:04:13.627Z,7.13
2019-05-11T09:09:19.429Z,7.87
2019-05-11T09:14:24.757Z,8.27
2019-05-11T09:19:30.334Z,11.67
2019-05-11T09:24:39.246Z,12.23
2019-05-11T09:29:44.686Z,15.43
2019-05-11T09:34:49.898Z,23.63
2019-05-11T09:39:55.628Z,14.43
2019-05-11T09:45:00.999Z,18.13
2019-05-11T09:50:08.596Z,17.97
2019-05-11T09:55:13.864Z,16.97
2019-05-11T10:00:20.215Z,18.43
2019-05-11T10:05:25.606Z,16.10
2019-05-11T10:10:31.934Z,13.23
2019-05-11T10:15:38.563Z,17.63
2019-05-11T10:20:45.489Z,13.13
2019-05-11T10:25:53.530Z,14.63
2019-05-11T10:30:58.859Z,14.70
2019-05-11T10:36:04.318Z,8.30
2019-05-11T10:41:09.682Z,12.20
2019-05-11T10:46:20.216Z,7.97
2019-05-11T10:51:21.877Z,6.90
2019-05-11T10:56:28.405Z,5.63
2019-05-11T11:01:33.907Z,6.70
2019-05-11T11:06:39.121Z,7.30
2019-05-11T11:11:44.496Z,7.43
2019-05-11T11:16:49.984Z,8.97
2019-05-11T11:21:55.205Z,7.37
2019-05-11T11:27:00.920Z,7.10
2019-05-11T11:32:08.032Z,9.30
2019-05-11T11:37:13.474Z,9.40
2019-05-11T11:42:19.791Z,9.90
2019-05-11T11:47:25.064Z,12.60
2019-05-11T11:52:30.283Z,14.23
2019-05-11T11:57:38.050Z,14.50
2019-05-11T12:02:43.574Z,15.93
2019-05-11T12:07:49.236Z,14.00
2019-05-11T12:12:54.574Z,16.07
2019-05-11T12:18:00.380Z,15.20
2019-05-11T12:23:05.538Z,14.87
2019-05-11T12:28:11.019Z,15.97
2019-05-11T12:33:18.527Z,20.00
2019-05-11T12:38:23.214Z,18.00
2019-05-11T12:43:28.495Z,22.53
2019-05-11T12:48:33.755Z,23.07
2019-05-11T12:53:39.020Z,24.73
2019-05-11T12:58:44.334Z,23.37
2019-05-11T13:03:50.121Z,24.53
2019-05-11T13:08:58.591Z,25.27
2019-05-11T13:14:03.438Z,22.60
2019-05-11T13:19:08.854Z,21.17
2019-05-11T13:24:14.277Z,23.47
2019-05-11T13:29:20.017Z,24.30
2019-05-11T13:34:29.190Z,23.43
2019-05-11T13:39:37.921Z,21.27
2019-05-11T13:44:43.314Z,21.57
2019-05-11T13:49:48.873Z,19.63
2019-05-11T13:54:54.327Z,22.23
2019-05-11T14:00:00.043Z,25.17
2019-05-11T14:05:05.709Z,17.73
2019-05-11T14:10:11.171Z,17.23
2019-05-11T14:15:18.804Z,17.67
2019-05-11T14:20:23.623Z,20.07
2019-05-11T14:25:29.176Z,17.60
2019-05-11T14:30:35.253Z,17.77
2019-05-11T14:35:41.912Z,16.77
2019-05-11T14:40:48.070Z,16.97
2019-05-11T14:45:53.276Z,18.30
2019-05-11T14:50:59.268Z,19.53
2019-05-11T14:56:05.059Z,15.97
2019-05-11T15:01:10.334Z,16.30
2019-05-11T15:06:18.839Z,13.17
2019-05-11T15:11:24.939Z,14.07
2019-05-11T15:16:30.827Z,13.67
2019-05-11T15:21:38.836Z,13.10
2019-05-11T15:26:44.110Z,16.43
2019-05-11T15:31:52.029Z,15.40
2019-05-11T15:36:58.301Z,14.77
2019-05-11T15:42:10.409Z,11.93
2019-05-11T15:47:11.068Z,11.57
2019-05-11T15:52:18.874Z,11.03
2019-05-11T15:57:24.439Z,13.37
2019-05-11T16:02:30.294Z,11.33
2019-05-11T16:07:38.257Z,12.03
2019-05-11T16:12:44.794Z,14.27
2019-05-11T16:17:50.735Z,12.63
2019-05-11T16:22:56.145Z,12.67
2019-05-11T16:28:02.645Z,11.73
2019-05-11T16:33:08.833Z,13.53
2019-05-11T16:38:14.183Z,13.37
2019-05-11T16:43:19.610Z,14.37
2019-05-11T16:48:24.797Z,14.80
2019-05-11T16:53:32.310Z,13.33
2019-05-11T16:58:40.807Z,12.40
2019-05-11T17:03:44.544Z,12.57
2019-05-11T17:08:49.783Z,11.53
2019-05-11T17:13:55.076Z,13.23
2019-05-11T17:19:01.569Z,13.80
2019-05-11T17:24:06.823Z,11.90
2019-05-11T17:29:11.989Z,14.90
2019-05-11T17:34:20.562Z,14.00
2019-05-11T17:39:25.296Z,14.23
2019-05-11T17:44:30.552Z,14.40
2019-05-11T17:49:38.408Z,13.30
2019-05-11T17:54:42.965Z,15.43
2019-05-11T17:59:48.138Z,14.07
2019-05-11T18:04:53.811Z,16.17
2019-05-11T18:09:58.961Z,15.50
2019-05-11T18:15:07.977Z,16.27
2019-05-11T18:20:17.756Z,17.50
2019-05-11T18:25:20.667Z,16.37
2019-05-11T18:30:25.851Z,14.20
2019-05-11T18:35:31.183Z,20.87
2019-05-11T18:40:38.180Z,20.70
2019-05-11T18:45:43.946Z,13.93
2019-05-11T18:50:49.280Z,13.17
2019-05-11T18:55:58.787Z,10.47
2019-05-11T19:01:04.135Z,9.90
2019-05-11T19:06:09.601Z,9.23
2019-05-11T19:11:14.979Z,8.67
2019-05-11T19:16:20.204Z,8.37
2019-05-11T19:21:25.460Z,7.30
2019-05-11T19:26:31.101Z,8.73
2019-05-11T19:31:38.447Z,10.37
2019-05-11T19:36:44.619Z,10.40
2019-05-11T19:41:49.772Z,10.10
2019-05-11T19:46:55.105Z,10.37
2019-05-11T19:52:00.290Z,10.53
2019-05-11T19:57:05.604Z,11.37
2019-05-11T20:02:10.838Z,11.60
2019-05-11T20:07:18.319Z,8.90
2019-05-11T20:12:25.466Z,9.67
2019-05-11T20:17:30.754Z,8.00
2019-05-11T20:22:36.117Z,7.20
2019-05-11T20:27:43.531Z,6.40
2019-05-11T20:32:49.326Z,7.53
2019-05-11T20:37:55.185Z,6.93
2019-05-11T20:43:00.370Z,7.87
2019-05-11T20:48:07.899Z,7.40
2019-05-11T20:53:13.610Z,8.77
2019-05-11T20:58:20.652Z,7.97
2019-05-11T21:03:27.666Z,8.37
2019-05-11T21:08:33.035Z,9.30
2019-05-11T21:13:39.321Z,9.30
2019-05-11T21:18:45.463Z,9.80
2019-05-11T21:23:50.919Z,9.73
2019-05-11T21:28:57.921Z,8.37
2019-05-11T21:34:03.011Z,8.50
2019-05-11T21:39:09.550Z,10.63
2019-05-11T21:44:14.746Z,9.23
2019-05-11T21:49:21.430Z,10.13
2019-05-11T21:54:29.958Z,9.27
2019-05-11T21:59:33.804Z,9.80
2019-05-11T22:04:39.716Z,10.33
2019-05-11T22:09:45.238Z,10.27
2019-05-11T22:14:51.637Z,11.93
2019-05-11T22:19:58.532Z,8.67
2019-05-11T22:25:04.020Z,9.43
2019-05-11T22:30:10.306Z,9.07
2019-05-11T22:35:18.531Z,7.57
2019-05-11T22:40:24.167Z,7.83
2019-05-11T22:45:29.381Z,6.97
2019-05-11T22:50:34.666Z,7.90
2019-05-11T22:55:40.901Z,8.60
2019-05-11T23:00:47.510Z,8.70
2019-05-11T23:05:52.842Z,9.23
2019-05-11T23:10:58.328Z,6.87
2019-05-11T23:16:03.632Z,7.00
2019-05-11T23:21:08.853Z,7.67
2019-05-11T23:26:14.176Z,4.90
2019-05-11T23:31:21.773Z,13.90
2019-05-11T23:36:28.032Z,9.30
2019-05-11T23:41:33.845Z,5.30
2019-05-11T23:46:39.019Z,7.57
2019-05-11T23:51:44.730Z,6.67
2019-05-11T23:56:52.430Z,6.10
